createdAt,value
2022-11-13T00:01:56.764Z,1.60
2022-11-13T00:04:42.361Z,1.70
2022-11-13T00:07:28.578Z,1.60
2022-11-13T00:12:59.920Z,1.60
2022-11-13T00:15:56.521Z,1.60
2022-11-13T00:18:42.393Z,1.40
2022-11-13T00:21:28.344Z,1.40
2022-11-13T00:24:13.892Z,1.30
2022-11-13T00:26:59.291Z,1.20
2022-11-13T00:29:45.050Z,1.20
2022-11-13T00:35:16.893Z,1.40
2022-11-13T00:40:48.521Z,1.30
2022-11-13T00:43:34.305Z,1.30
2022-11-13T00:49:06.885Z,1.20
2022-11-13T00:51:52.537Z,1.20
2022-11-13T01:00:11.451Z,1.70
2022-11-13T01:02:59.647Z,1.60
2022-11-13T01:05:47.170Z,1.50
2022-11-13T01:08:32.800Z,1.30
2022-11-13T01:11:23.211Z,1.20
2022-11-13T01:14:09.766Z,1.20
2022-11-13T01:16:55.503Z,1.10
2022-11-13T01:19:40.925Z,1.00
2022-11-13T01:22:26.907Z,0.90
2022-11-13T01:27:58.722Z,1.30
2022-11-13T01:30:44.108Z,1.20
2022-11-13T01:33:29.567Z,1.20
2022-11-13T01:36:26.904Z,1.10
2022-11-13T01:39:12.988Z,1.10
2022-11-13T01:41:58.958Z,1.00
2022-11-13T01:44:55.006Z,1.00
2022-11-13T01:50:26.835Z,0.80
2022-11-13T01:53:13.275Z,0.70
2022-11-13T01:58:58.009Z,0.80
2022-11-13T02:01:43.643Z,0.80
2022-11-13T02:04:30.644Z,0.80
2022-11-13T02:07:21.672Z,0.80
2022-11-13T02:10:08.840Z,0.90
2022-11-13T02:12:54.693Z,0.80
2022-11-13T02:15:42.500Z,0.80
2022-11-13T02:18:31.199Z,0.80
2022-11-13T02:21:38.420Z,0.70
2022-11-13T02:24:44.764Z,0.80
2022-11-13T02:27:46.592Z,0.70
2022-11-13T02:30:36.187Z,0.70
2022-11-13T02:33:33.677Z,0.80
2022-11-13T02:36:23.059Z,0.80
2022-11-13T02:39:12.849Z,0.70
2022-11-13T02:41:58.200Z,0.60
2022-11-13T02:50:17.076Z,0.50
2022-11-13T02:53:03.888Z,0.50
2022-11-13T02:55:49.432Z,0.60
2022-11-13T02:58:34.976Z,0.70
2022-11-13T03:06:52.643Z,0.60
2022-11-13T03:09:38.296Z,0.50
2022-11-13T03:12:24.099Z,0.40
2022-11-13T03:15:10.589Z,0.30
2022-11-13T03:20:44.397Z,0.20
2022-11-13T03:23:30.257Z,0.20
2022-11-13T03:26:17.448Z,0.40
2022-11-13T03:29:03.414Z,0.30
2022-11-13T03:40:08.358Z,0.50
2022-11-13T03:42:53.997Z,0.60
2022-11-13T03:45:39.909Z,0.50
2022-11-13T03:53:58.298Z,0.40
2022-11-13T03:59:29.793Z,0.30
2022-11-13T04:02:15.253Z,0.30
2022-11-13T04:07:46.714Z,0.60
2022-11-13T04:10:32.309Z,0.60
2022-11-13T04:21:36.577Z,0.40
2022-11-13T04:38:13.108Z,0.40
2022-11-13T04:41:17.478Z,0.40
2022-11-13T04:44:03.142Z,0.30
2022-11-13T04:55:08.468Z,0.00
2022-11-13T04:57:55.416Z,-0.10
2022-11-13T05:03:27.554Z,-0.20
2022-11-13T05:11:45.921Z,0.00
2022-11-13T05:14:31.589Z,0.20
2022-11-13T05:17:17.311Z,0.30
2022-11-13T05:20:02.791Z,0.20
2022-11-13T05:22:48.175Z,0.00
2022-11-13T05:25:35.150Z,-0.10
2022-11-13T05:28:20.553Z,0.00
2022-11-13T05:31:16.661Z,0.00
2022-11-13T05:34:06.717Z,0.00
2022-11-13T05:36:52.422Z,0.00
2022-11-13T05:42:23.473Z,0.30
2022-11-13T05:45:10.209Z,0.40
2022-11-13T05:47:55.671Z,0.50
2022-11-13T05:50:41.245Z,0.40
2022-11-13T05:53:26.618Z,0.20
2022-11-13T05:56:22.343Z,0.10
2022-11-13T05:59:08.174Z,0.10
2022-11-13T06:01:53.939Z,0.10
2022-11-13T06:07:25.386Z,0.40
2022-11-13T06:10:10.987Z,0.50
2022-11-13T06:18:29.965Z,0.30
2022-11-13T06:21:22.978Z,0.10
2022-11-13T06:24:12.668Z,0.00
2022-11-13T06:32:30.283Z,-0.20
2022-11-13T06:35:15.778Z,-0.30
2022-11-13T06:46:24.984Z,0.00
2022-11-13T06:51:56.496Z,0.20
2022-11-13T06:54:42.268Z,0.10
2022-11-13T06:57:28.195Z,0.00
2022-11-13T07:00:14.756Z,0.10
2022-11-13T07:03:00.708Z,0.20
2022-11-13T07:08:32.892Z,0.70
2022-11-13T07:11:23.712Z,1.10
2022-11-13T07:14:12.776Z,1.30
2022-11-13T07:19:56.052Z,1.60
2022-11-13T07:25:29.155Z,2.00
2022-11-13T07:28:14.978Z,2.20
2022-11-13T07:31:01.661Z,2.40
2022-11-13T07:33:50.215Z,2.50
2022-11-13T07:36:36.054Z,2.80
2022-11-13T07:39:21.600Z,3.00
2022-11-13T07:42:07.506Z,3.20
2022-11-13T07:47:41.836Z,3.70
2022-11-13T07:50:35.477Z,4.00
2022-11-13T07:53:23.191Z,4.50
2022-11-13T08:10:01.959Z,5.20
2022-11-13T08:12:48.207Z,5.50
2022-11-13T08:15:35.130Z,5.70
2022-11-13T08:18:20.743Z,6.00
2022-11-13T08:21:11.861Z,6.30
2022-11-13T08:24:00.342Z,6.20
2022-11-13T08:26:45.872Z,6.30
2022-11-13T08:29:31.783Z,6.30
2022-11-13T08:32:19.650Z,6.50
2022-11-13T08:35:06.373Z,6.70
2022-11-13T08:37:52.436Z,7.00
2022-11-13T08:40:38.020Z,7.40
2022-11-13T08:43:23.584Z,7.50
2022-11-13T08:46:09.284Z,7.80
2022-11-13T08:48:54.705Z,8.00
2022-11-13T08:51:40.496Z,8.10
2022-11-13T08:54:26.037Z,8.40
2022-11-13T08:57:11.771Z,8.80
2022-11-13T08:59:57.453Z,9.00
2022-11-13T09:03:54.043Z,9.20
2022-11-13T09:06:39.849Z,9.30
2022-11-13T09:09:25.832Z,9.50
2022-11-13T09:12:11.853Z,9.60
2022-11-13T09:14:57.393Z,10.10
2022-11-13T09:17:42.952Z,10.30
2022-11-13T09:20:31.157Z,10.30
2022-11-13T09:23:17.009Z,10.70
2022-11-13T09:26:03.583Z,10.70
2022-11-13T09:28:49.198Z,10.80
2022-11-13T09:31:34.669Z,10.90
2022-11-13T09:34:21.640Z,11.10
2022-11-13T09:37:07.040Z,11.30
2022-11-13T09:39:52.483Z,11.40
2022-11-13T09:42:41.370Z,11.50
2022-11-13T09:45:27.786Z,11.70
2022-11-13T09:48:24.629Z,11.60
2022-11-13T09:51:19.046Z,11.70
2022-11-13T09:54:12.561Z,12.00
2022-11-13T09:57:31.001Z,12.30
2022-11-13T10:00:20.820Z,12.80
2022-11-13T10:07:14.368Z,12.90
2022-11-13T10:10:54.842Z,12.90
2022-11-13T10:13:52.425Z,13.90
2022-11-13T10:16:51.967Z,13.90
2022-11-13T10:20:04.897Z,14.90
2022-11-13T10:22:55.534Z,17.00
2022-11-13T10:25:44.450Z,17.50
2022-11-13T10:28:50.229Z,17.40
2022-11-13T10:31:48.591Z,17.30
2022-11-13T10:34:34.474Z,17.40
2022-11-13T10:37:57.489Z,17.70
2022-11-13T10:40:48.675Z,17.30
2022-11-13T10:43:35.375Z,17.70
2022-11-13T10:46:31.728Z,18.10
2022-11-13T10:49:32.055Z,18.30
2022-11-13T10:52:26.835Z,18.30
2022-11-13T10:55:34.230Z,17.90
2022-11-13T10:58:20.624Z,18.30
2022-11-13T11:01:23.778Z,18.20
2022-11-13T11:04:27.343Z,18.00
2022-11-13T11:07:22.048Z,18.20
2022-11-13T11:10:32.161Z,17.90
2022-11-13T11:13:25.220Z,17.90
2022-11-13T11:16:21.706Z,18.40
2022-11-13T11:19:14.635Z,18.90
2022-11-13T11:22:18.246Z,19.00
2022-11-13T11:25:44.304Z,18.90
2022-11-13T11:28:49.410Z,18.80
2022-11-13T11:32:12.297Z,18.90
2022-11-13T11:35:12.193Z,19.40
2022-11-13T11:38:11.999Z,19.80
2022-11-13T11:41:16.305Z,20.60
2022-11-13T11:44:09.911Z,20.90
2022-11-13T11:46:56.000Z,19.70
2022-11-13T11:49:43.896Z,20.00
2022-11-13T11:53:04.544Z,20.50
2022-11-13T11:56:33.647Z,20.30
2022-11-13T12:00:09.481Z,19.70
2022-11-13T12:03:29.242Z,20.20
2022-11-13T12:06:42.554Z,20.20
2022-11-13T12:09:34.475Z,20.10
2022-11-13T12:13:09.716Z,20.00
2022-11-13T12:16:25.566Z,20.30
2022-11-13T12:19:45.484Z,20.30
2022-11-13T12:22:59.289Z,20.30
2022-11-13T12:26:25.094Z,20.30
2022-11-13T12:30:03.262Z,21.00
2022-11-13T12:33:21.784Z,21.30
2022-11-13T12:36:11.797Z,20.60
2022-11-13T12:39:43.067Z,20.30
2022-11-13T12:43:33.037Z,20.50
2022-11-13T12:46:19.252Z,20.00
2022-11-13T12:49:28.993Z,19.60
2022-11-13T12:52:23.949Z,20.70
2022-11-13T12:55:30.559Z,20.70
2022-11-13T12:58:26.553Z,20.50
2022-11-13T13:01:12.444Z,20.20
2022-11-13T13:04:34.121Z,20.00
2022-11-13T13:08:56.376Z,19.90
2022-11-13T13:12:52.115Z,19.20
2022-11-13T13:16:00.996Z,19.00
2022-11-13T13:18:46.633Z,18.90
2022-11-13T13:21:43.722Z,18.90
2022-11-13T13:24:39.808Z,19.00
2022-11-13T13:27:32.289Z,18.80
2022-11-13T13:30:26.515Z,19.10
2022-11-13T13:33:59.313Z,18.20
2022-11-13T13:37:10.577Z,18.20
2022-11-13T13:40:30.603Z,18.20
2022-11-13T13:43:53.070Z,17.70
2022-11-13T13:46:38.749Z,18.10
2022-11-13T13:49:28.546Z,17.40
2022-11-13T13:52:16.177Z,17.30
2022-11-13T13:55:07.449Z,17.60
2022-11-13T13:57:53.785Z,17.30
2022-11-13T14:00:59.152Z,17.10
2022-11-13T14:03:45.348Z,17.20
2022-11-13T14:06:30.991Z,17.10
2022-11-13T14:09:29.928Z,17.00
2022-11-13T14:12:22.221Z,16.40
2022-11-13T14:15:35.460Z,16.50
2022-11-13T14:18:21.253Z,16.50
2022-11-13T14:21:18.094Z,16.60
2022-11-13T14:24:05.376Z,16.40
2022-11-13T14:26:56.070Z,16.40
2022-11-13T14:29:50.641Z,16.30
2022-11-13T14:32:45.707Z,16.20
2022-11-13T14:38:24.570Z,16.20
2022-11-13T14:41:29.387Z,16.20
2022-11-13T14:44:32.406Z,16.20
2022-11-13T14:47:37.087Z,16.00
2022-11-13T14:53:55.182Z,15.10
2022-11-13T14:56:42.928Z,14.80
2022-11-13T14:59:29.235Z,14.60
2022-11-13T15:05:00.841Z,14.00
2022-11-13T15:07:47.111Z,13.60
2022-11-13T15:10:32.635Z,13.00
2022-11-13T15:13:18.663Z,12.60
2022-11-13T15:19:14.529Z,11.80
2022-11-13T15:25:15.893Z,10.50
2022-11-13T15:28:01.959Z,10.10
2022-11-13T15:30:47.648Z,9.80
2022-11-13T15:36:19.135Z,9.30
2022-11-13T15:39:09.369Z,9.00
2022-11-13T15:41:57.581Z,8.90
2022-11-13T15:47:36.777Z,8.70
2022-11-13T15:50:22.424Z,8.60
2022-11-13T15:53:14.621Z,8.40
2022-11-13T15:56:03.017Z,8.30
2022-11-13T15:58:48.429Z,8.20
2022-11-13T16:01:34.333Z,8.00
2022-11-13T16:04:19.922Z,7.70
2022-11-13T16:07:13.929Z,7.60
2022-11-13T16:12:45.925Z,7.40
2022-11-13T16:15:31.767Z,7.40
2022-11-13T16:18:28.285Z,7.30
2022-11-13T16:21:14.411Z,7.20
2022-11-13T16:24:00.376Z,6.90
2022-11-13T16:26:57.607Z,6.80
2022-11-13T16:29:44.302Z,6.80
2022-11-13T16:35:19.387Z,6.60
2022-11-13T16:38:13.709Z,6.60
2022-11-13T16:43:45.937Z,6.40
2022-11-13T16:46:44.601Z,6.20
2022-11-13T16:55:06.549Z,6.00
2022-11-13T16:57:52.809Z,5.90
2022-11-13T17:03:24.796Z,5.80
2022-11-13T17:06:31.321Z,5.80
2022-11-13T17:09:19.998Z,5.80
2022-11-13T17:12:06.408Z,5.70
2022-11-13T17:14:51.914Z,5.70
2022-11-13T17:17:37.331Z,5.60
2022-11-13T17:20:22.705Z,5.50
2022-11-13T17:23:18.436Z,5.40
2022-11-13T17:26:06.478Z,5.30
2022-11-13T17:28:52.764Z,5.30
2022-11-13T17:31:38.622Z,5.30
2022-11-13T17:34:25.721Z,5.20
2022-11-13T17:48:15.400Z,4.90
2022-11-13T17:51:06.806Z,4.80
2022-11-13T17:53:52.755Z,4.80
2022-11-13T17:56:38.795Z,4.80
2022-11-13T17:59:24.917Z,4.80
2022-11-13T18:02:12.113Z,4.80
2022-11-13T18:10:34.275Z,4.80
2022-11-13T18:13:19.967Z,4.80
2022-11-13T18:16:14.810Z,4.80
2022-11-13T18:19:03.322Z,4.70
2022-11-13T18:21:49.096Z,4.70
2022-11-13T18:30:08.717Z,4.60
2022-11-13T18:32:54.520Z,4.60
2022-11-13T18:35:40.297Z,4.70
2022-11-13T18:38:26.262Z,4.70
2022-11-13T18:41:21.686Z,4.70
2022-11-13T18:49:39.776Z,4.90
2022-11-13T19:06:19.577Z,5.20
2022-11-13T19:09:11.270Z,5.20
2022-11-13T19:11:57.002Z,5.20
2022-11-13T19:14:42.661Z,5.30
2022-11-13T19:17:28.553Z,5.40
2022-11-13T19:25:52.562Z,5.40
2022-11-13T19:28:39.758Z,5.40
2022-11-13T19:31:27.739Z,5.50
2022-11-13T19:34:14.495Z,5.60
2022-11-13T19:40:01.760Z,5.40
2022-11-13T19:46:10.246Z,5.40
2022-11-13T19:48:55.897Z,5.30
2022-11-13T19:54:28.015Z,5.20
2022-11-13T20:02:45.858Z,5.20
2022-11-13T20:05:31.264Z,5.10
2022-11-13T20:08:16.841Z,5.20
2022-11-13T20:11:16.943Z,5.20
2022-11-13T20:14:02.539Z,5.20
2022-11-13T20:19:34.448Z,5.20
2022-11-13T20:22:20.239Z,5.20
2022-11-13T20:25:05.983Z,5.30
2022-11-13T20:27:51.839Z,5.30
2022-11-13T20:30:37.451Z,5.20
2022-11-13T20:33:23.135Z,5.10
2022-11-13T20:36:09.925Z,5.00
2022-11-13T20:38:57.575Z,4.90
2022-11-13T20:41:43.244Z,5.00
2022-11-13T20:44:28.820Z,5.00
2022-11-13T20:50:00.557Z,4.90
2022-11-13T20:58:18.771Z,5.00
2022-11-13T21:01:12.483Z,5.00
2022-11-13T21:04:03.354Z,5.10
2022-11-13T21:06:53.278Z,5.20
2022-11-13T21:09:39.403Z,5.20
2022-11-13T21:12:25.288Z,5.20
2022-11-13T21:15:11.345Z,5.20
2022-11-13T21:17:58.752Z,5.20
2022-11-13T21:20:45.024Z,5.20
2022-11-13T21:26:17.348Z,5.10
2022-11-13T21:29:03.545Z,5.10
2022-11-13T21:31:49.504Z,5.10
2022-11-13T21:34:35.017Z,5.20
2022-11-13T21:37:20.773Z,5.10
2022-11-13T21:40:09.190Z,5.20
2022-11-13T21:42:56.760Z,5.20
2022-11-13T21:45:42.246Z,5.20
2022-11-13T21:51:18.768Z,5.10
2022-11-13T21:56:50.972Z,5.30
2022-11-13T21:59:36.366Z,5.30
2022-11-13T22:05:08.560Z,5.30
2022-11-13T22:10:41.241Z,5.40
2022-11-13T22:13:27.806Z,5.30
2022-11-13T22:16:15.021Z,5.40
2022-11-13T22:19:04.049Z,5.40
2022-11-13T22:21:50.089Z,5.40
2022-11-13T22:24:35.529Z,5.40
2022-11-13T22:27:21.193Z,5.50
2022-11-13T22:30:07.844Z,5.50
2022-11-13T22:32:53.325Z,5.40
2022-11-13T22:35:39.190Z,5.40
2022-11-13T22:38:24.650Z,5.40
2022-11-13T22:41:22.953Z,5.50
2022-11-13T22:44:13.933Z,5.50
2022-11-13T22:55:18.213Z,5.50
2022-11-13T22:58:04.166Z,5.50
2022-11-13T23:03:42.671Z,5.60
2022-11-13T23:06:32.594Z,5.60
2022-11-13T23:09:18.582Z,5.60
2022-11-13T23:12:04.382Z,5.50
2022-11-13T23:17:36.086Z,5.60
2022-11-13T23:25:54.790Z,5.70
2022-11-13T23:31:26.892Z,5.80
2022-11-13T23:34:12.459Z,5.90
2022-11-13T23:36:57.859Z,5.90
2022-11-13T23:39:43.382Z,6.00
2022-11-13T23:42:53.387Z,6.10
2022-11-13T23:45:35.078Z,6.20
2022-11-13T23:51:06.910Z,6.30
2022-11-13T23:53:52.350Z,6.20
2022-11-13T23:59:24.491Z,6.10
